Time;durP1;ratioP1;P1;durP2;ratioP2;P2;SDS_P1;SDS_P2;PMS_P1;PMS_P2;Temp;Humidity;BMP_temperature;BMP_pressure;BME280_temperature;BME280_humidity;BME280_pressure;Samples;Min_cycle;Max_cycle;Signal;HPM_P1;HPM_P2
2024/02/14 00:04:35;;;;;;;22.30;15.60;;;;;;;2.09;100.00;99929.98;434772;1260;140714;-57
2024/02/14 00:14:42;;;;;;;26.20;17.30;;;;;;;2.08;100.00;99933.27;435089;1260;140128;-57
2024/02/14 00:24:49;;;;;;;24.90;18.30;;;;;;;2.07;100.00;99950.91;437001;1262;140318;-67
2024/02/14 00:34:56;;;;;;;26.40;16.00;;;;;;;2.07;100.00;99954.02;434062;1262;140325;-66
2024/02/14 00:45:08;;;;;;;27.90;18.50;;;;;;;2.06;100.00;99964.57;434625;1262;140635;-67
2024/02/14 00:55:15;;;;;;;25.10;17.30;;;;;;;2.06;100.00;99969.56;436963;1259;139703;-53
2024/02/14 01:05:21;;;;;;;23.60;18.50;;;;;;;2.04;100.00;99963.93;435193;1264;139662;-57
2024/02/14 01:15:27;;;;;;;34.80;18.50;;;;;;;1.99;100.00;99959.71;449618;1259;140022;-54
2024/02/14 01:25:33;;;;;;;27.30;18.40;;;;;;;1.86;100.00;99950.35;436632;1262;140132;-60
2024/02/14 01:35:41;;;;;;;24.30;18.10;;;;;;;1.61;100.00;99950.89;434808;1260;139571;-66
2024/02/14 01:45:48;;;;;;;24.50;17.30;;;;;;;1.28;100.00;99945.00;434574;1262;139675;-59
2024/02/14 01:55:55;;;;;;;32.30;21.60;;;;;;;0.93;100.00;99941.52;434506;1262;141557;-59
2024/02/14 02:06:01;;;;;;;28.30;18.30;;;;;;;0.65;100.00;99938.93;439120;1262;140574;-60
2024/02/14 02:16:08;;;;;;;27.60;19.50;;;;;;;0.39;100.00;99945.90;434808;1262;139610;-57
2024/02/14 02:26:15;;;;;;;30.30;21.60;;;;;;;0.17;100.00;99950.21;438913;1262;140657;-57
2024/02/14 02:36:19;;;;;;;;;;;;;;;-0.04;100.00;99951.55;436591;1262;140007;-57
2024/02/14 02:46:26;;;;;;;31.70;21.80;;;;;;;-0.30;100.00;99958.09;435852;1262;126521;-57
2024/02/14 02:56:30;;;;;;;;;;;;;;;-0.56;100.00;99971.69;436138;1262;140224;-55
2024/02/14 03:06:38;;;;;;;30.30;20.80;;;;;;;-0.81;100.00;99978.67;434466;1263;126503;-55
2024/02/14 03:16:48;;;;;;;33.20;24.50;;;;;;;-1.01;100.00;99982.66;434609;1262;140349;-66
2024/02/14 03:26:55;;;;;;;35.00;25.40;;;;;;;-1.12;100.00;99984.83;434858;1260;140245;-66
2024/02/14 03:37:04;;;;;;;30.50;23.50;;;;;;;-1.23;100.00;99985.62;435843;1260;139812;-56
2024/02/14 03:47:10;;;;;;;35.30;24.10;;;;;;;-1.36;100.00;99990.19;441513;1263;140677;-56
2024/02/14 03:57:17;;;;;;;32.70;22.40;;;;;;;-1.51;100.00;99995.97;436007;1261;139732;-55
2024/02/14 04:07:24;;;;;;;29.90;23.60;;;;;;;-1.65;100.00;99998.33;435478;1263;140151;-58
2024/02/14 04:17:28;;;;;;;;;;;;;;;-1.66;100.00;100015.15;434570;1263;141534;-66
2024/02/14 04:27:34;;;;;;;31.40;22.00;;;;;;;-1.64;100.00;100014.28;436368;1263;126169;-65
2024/02/14 04:37:43;;;;;;;;;;;;;;;-1.65;100.00;100018.58;434581;1264;140044;-65
2024/02/14 04:47:49;;;;;;;26.70;19.10;;;;;;;-1.77;100.00;100014.20;443069;1254;126011;-55
2024/02/14 04:57:58;;;;;;;27.50;16.90;;;;;;;-1.81;100.00;100010.28;436351;1251;141309;-55
2024/02/14 05:08:03;;;;;;;;;;;;;;;-1.84;100.00;100020.77;437181;1254;140122;-54
2024/02/14 05:18:09;;;;;;;25.70;18.90;;;;;;;-1.94;100.00;100021.67;440217;1255;126489;-54
2024/02/14 05:28:18;;;;;;;25.00;18.50;;;;;;;-2.12;100.00;100022.98;444321;1254;140231;-57
2024/02/14 05:38:24;;;;;;;29.60;18.70;;;;;;;-2.13;100.00;100031.91;437443;1254;139842;-58
2024/02/14 05:48:31;;;;;;;26.00;19.70;;;;;;;-2.21;100.00;100035.55;436810;1254;140507;-55
2024/02/14 05:58:37;;;;;;;30.50;23.40;;;;;;;-2.20;100.00;100043.25;436417;1251;140488;-56
2024/02/14 06:08:44;;;;;;;26.10;21.00;;;;;;;-2.16;100.00;100049.24;436948;1254;140289;-57
2024/02/14 06:18:53;;;;;;;30.30;22.00;;;;;;;-2.04;100.00;100047.98;437470;1255;140080;-56
2024/02/14 06:28:59;;;;;;;35.20;22.20;;;;;;;-1.88;100.00;100048.94;437898;1256;140221;-55
2024/02/14 06:39:10;;;;;;;27.50;21.00;;;;;;;-1.58;100.00;100048.75;442250;1253;5104189;-55
2024/02/14 06:49:18;;;;;;;30.90;21.30;;;;;;;-1.06;100.00;100053.00;440213;1253;143647;-57
2024/02/14 06:59:26;;;;;;;31.30;22.20;;;;;;;-0.14;100.00;100060.27;436905;1256;140565;-66
2024/02/14 07:09:35;;;;;;;24.10;18.20;;;;;;;2.50;100.00;100047.14;437008;1253;140025;-83
2024/02/14 07:19:43;;;;;;;22.20;18.20;;;;;;;6.72;100.00;100046.80;438690;1252;139885;-65
2024/02/14 07:29:50;;;;;;;21.20;17.00;;;;;;;10.54;100.00;100040.84;436779;1255;140087;-63
2024/02/14 07:39:56;;;;;;;22.20;15.80;;;;;;;13.58;100.00;100032.67;436736;1254;140766;-71
2024/02/14 07:50:03;;;;;;;16.00;12.60;;;;;;;15.65;100.00;100028.59;436338;1254;140166;-77
2024/02/14 08:00:12;;;;;;;20.80;17.00;;;;;;;16.81;100.00;100028.07;445701;1254;139532;-73
2024/02/14 08:10:19;;;;;;;21.90;16.30;;;;;;;18.67;98.33;100033.57;436887;1252;139423;-66
2024/02/14 08:20:25;;;;;;;15.50;11.90;;;;;;;19.85;92.56;100038.68;437084;1254;139924;-75
2024/02/14 08:30:31;;;;;;;14.30;10.80;;;;;;;22.01;90.75;100026.89;438417;1253;139253;-79
2024/02/14 08:40:37;;;;;;;10.20;9.00;;;;;;;23.88;84.37;100028.75;438481;1251;140372;-64
2024/02/14 08:50:45;;;;;;;11.50;8.50;;;;;;;23.75;77.94;100031.38;444473;1253;139144;-67
2024/02/14 09:00:53;;;;;;;8.80;7.50;;;;;;;24.12;75.11;100030.13;448587;1252;139126;-58
2024/02/14 09:11:14;;;;;;;10.40;6.50;;;;;;;25.29;72.13;100023.29;444062;1252;139014;-62
2024/02/14 09:21:21;;;;;;;7.50;5.40;;;;;;;25.31;67.60;100019.07;451599;1252;139652;-60
2024/02/14 09:31:28;;;;;;;7.50;5.60;;;;;;;23.74;58.87;100020.50;438472;1253;139899;-65
2024/02/14 09:41:43;;;;;;;5.60;4.80;;;;;;;22.76;57.66;100017.72;438093;1256;139515;-59
2024/02/14 09:51:50;;;;;;;5.60;3.90;;;;;;;20.66;56.34;100017.41;440037;1253;139590;-61
2024/02/14 10:01:57;;;;;;;5.20;4.10;;;;;;;17.44;56.10;100026.36;438150;1253;139082;-59
2024/02/14 10:12:05;;;;;;;7.60;4.60;;;;;;;14.91;56.85;100031.70;440611;1252;138663;-60
2024/02/14 10:22:09;;;;;;;;;;;;;;;12.52;58.25;100026.08;437990;1256;139684;-62
2024/02/14 10:32:18;;;;;;;6.20;4.20;;;;;;;11.34;60.98;100023.24;438194;1256;125531;-69
2024/02/14 10:42:29;;;;;;;6.00;3.60;;;;;;;10.83;62.19;100012.41;440840;1256;139219;-65
2024/02/14 10:52:37;;;;;;;6.10;3.90;;;;;;;10.29;62.86;100003.35;438068;1253;139198;-59
2024/02/14 11:02:45;;;;;;;7.10;4.40;;;;;;;9.74;63.55;99993.05;438526;1253;139060;-58
2024/02/14 11:12:55;;;;;;;8.10;4.20;;;;;;;9.31;64.33;99987.63;438771;1256;138693;-66
2024/02/14 11:23:06;;;;;;;5.00;3.60;;;;;;;8.90;65.20;99976.92;443751;1252;139162;-60
2024/02/14 11:33:23;;;;;;;8.50;3.00;;;;;;;8.80;65.78;99969.63;441405;1252;140077;-64
2024/02/14 11:43:31;;;;;;;3.80;3.30;;;;;;;8.59;65.80;99962.98;440543;1253;139143;-70
2024/02/14 11:53:36;;;;;;;;;;;;;;;8.41;66.16;99954.55;437555;1253;139516;-59
2024/02/14 12:03:44;;;;;;;4.20;2.80;;;;;;;8.19;66.02;99946.89;440402;1253;125380;-69
2024/02/14 12:13:53;;;;;;;5.30;3.70;;;;;;;8.09;65.92;99942.86;438156;1250;139209;-59
2024/02/14 12:24:03;;;;;;;9.00;4.10;;;;;;;7.98;66.41;99936.75;437475;1255;139127;-60
2024/02/14 12:34:11;;;;;;;13.30;4.80;;;;;;;7.94;66.53;99927.00;442952;1252;139203;-67
2024/02/14 12:44:18;;;;;;;5.80;3.50;;;;;;;7.84;66.23;99922.39;437180;1253;141086;-61
2024/02/14 12:54:24;;;;;;;6.90;3.50;;;;;;;7.83;66.82;99915.98;437175;1256;139007;-64
2024/02/14 13:04:31;;;;;;;4.40;3.50;;;;;;;7.90;67.15;99913.96;437337;1256;139129;-63
2024/02/14 13:14:37;;;;;;;8.30;4.80;;;;;;;7.94;67.33;99905.91;446721;1253;138865;-60
2024/02/14 13:24:45;;;;;;;6.00;5.00;;;;;;;7.98;67.36;99902.20;437136;1253;138872;-61
2024/02/14 13:34:51;;;;;;;15.80;9.50;;;;;;;8.05;67.46;99898.73;440076;1253;140299;-60
2024/02/14 13:44:58;;;;;;;13.40;9.00;;;;;;;8.05;67.25;99889.35;437846;1253;139083;-61
2024/02/14 13:55:05;;;;;;;7.00;5.40;;;;;;;7.82;67.48;99885.87;437134;1253;139957;-61
2024/02/14 14:05:13;;;;;;;6.50;3.80;;;;;;;7.62;67.61;99879.36;440036;1251;138392;-60
2024/02/14 14:15:26;;;;;;;8.10;5.10;;;;;;;7.54;68.23;99879.17;437696;1253;139206;-60
2024/02/14 14:25:35;;;;;;;7.30;4.30;;;;;;;7.73;68.63;99879.17;441096;1253;138510;-62
2024/02/14 14:35:41;;;;;;;9.30;5.10;;;;;;;7.90;68.45;99884.48;436862;1256;138787;-61
2024/02/14 14:45:50;;;;;;;6.30;5.10;;;;;;;7.88;68.01;99879.67;440120;1253;139350;-59
2024/02/14 14:55:59;;;;;;;10.40;5.00;;;;;;;7.71;67.86;99879.79;442585;1256;139135;-59
2024/02/14 15:06:07;;;;;;;7.80;5.30;;;;;;;7.50;68.42;99873.09;438283;1254;138945;-62
2024/02/14 15:16:13;;;;;;;8.40;5.90;;;;;;;7.29;68.94;99864.33;437487;1253;138945;-60
2024/02/14 15:26:23;;;;;;;11.50;7.10;;;;;;;7.13;69.62;99856.33;437267;1250;138740;-60
2024/02/14 15:36:30;;;;;;;12.00;7.50;;;;;;;6.97;70.19;99857.55;438037;1253;138807;-61
2024/02/14 15:46:36;;;;;;;12.40;7.50;;;;;;;6.70;70.34;99849.67;436340;1253;139674;-61
2024/02/14 15:56:42;;;;;;;13.80;8.20;;;;;;;6.48;70.65;99859.83;437136;1256;139709;-63
2024/02/14 16:06:48;;;;;;;15.70;8.40;;;;;;;6.23;71.24;99859.64;438083;1253;139117;-59
2024/02/14 16:16:55;;;;;;;19.40;11.00;;;;;;;6.03;71.98;99865.70;438215;1253;139625;-62
2024/02/14 16:27:01;;;;;;;17.10;10.70;;;;;;;5.85;72.51;99872.11;438001;1253;138920;-57
2024/02/14 16:37:08;;;;;;;15.50;11.30;;;;;;;5.72;73.19;99885.67;437478;1256;139259;-56
2024/02/14 16:47:15;;;;;;;20.80;11.90;;;;;;;5.64;73.84;99893.45;437249;1253;140520;-55
2024/02/14 16:57:21;;;;;;;17.20;12.80;;;;;;;5.61;74.46;99905.02;440794;1252;139760;-57
2024/02/14 17:07:27;;;;;;;20.60;14.20;;;;;;;5.59;74.98;99916.17;438476;1253;140231;-69
2024/02/14 17:17:34;;;;;;;20.50;14.60;;;;;;;5.55;75.06;99919.31;437551;1253;139707;-61
2024/02/14 17:27:42;;;;;;;18.50;13.50;;;;;;;5.48;75.48;99923.57;436864;1254;140501;-59
2024/02/14 17:37:48;;;;;;;20.60;13.80;;;;;;;5.42;75.57;99928.46;437170;1256;140714;-68
2024/02/14 17:47:54;;;;;;;24.30;16.70;;;;;;;5.37;75.83;99936.97;436800;1256;139633;-65
2024/02/14 17:58:03;;;;;;;23.00;16.30;;;;;;;5.31;76.00;99936.67;436931;1255;139632;-56
2024/02/14 18:08:13;;;;;;;22.00;17.40;;;;;;;5.24;76.42;99935.54;438211;1253;139128;-57
2024/02/14 18:18:20;;;;;;;26.30;16.90;;;;;;;5.16;76.74;99930.46;438510;1253;139565;-59
2024/02/14 18:28:30;;;;;;;26.90;17.00;;;;;;;5.11;77.13;99923.18;437174;1253;140200;-60
2024/02/14 18:38:36;;;;;;;30.00;19.70;;;;;;;5.03;77.39;99918.77;433076;1254;5120792;-59
2024/02/14 18:48:45;;;;;;;27.80;19.60;;;;;;;4.95;77.71;99919.05;437278;1254;140797;-60
2024/02/14 18:58:52;;;;;;;27.90;19.80;;;;;;;4.87;78.10;99925.40;441394;1253;139917;-59
2024/02/14 19:09:02;;;;;;;26.50;19.00;;;;;;;4.82;78.51;99921.58;439006;1255;140070;-56
2024/02/14 19:19:11;;;;;;;31.60;20.40;;;;;;;4.80;78.84;99920.60;437574;1256;139438;-57
2024/02/14 19:29:21;;;;;;;24.30;18.80;;;;;;;4.77;79.14;99911.69;450799;1252;139433;-58
2024/02/14 19:39:31;;;;;;;30.70;20.20;;;;;;;4.75;79.53;99916.29;441255;1256;139665;-57
2024/02/14 19:49:40;;;;;;;27.30;19.40;;;;;;;4.70;79.69;99915.93;438576;1256;139422;-60
2024/02/14 19:59:47;;;;;;;31.30;21.90;;;;;;;4.62;79.90;99907.02;437376;1254;141014;-60
2024/02/14 20:09:53;;;;;;;29.30;19.80;;;;;;;4.51;80.16;99902.16;438479;1254;141640;-59
2024/02/14 20:20:00;;;;;;;25.90;18.30;;;;;;;4.45;80.53;99896.45;439349;1256;140008;-60
2024/02/14 20:30:08;;;;;;;;;;;;;;;4.49;80.93;99894.08;442126;1254;140755;-59
2024/02/14 20:40:15;;;;;;;23.50;15.80;;;;;;;4.57;81.09;99890.38;439489;1256;126409;-59
2024/02/14 20:50:21;;;;;;;22.30;15.90;;;;;;;4.65;81.17;99883.99;437625;1256;140554;-58
2024/02/14 21:00:27;;;;;;;23.70;14.20;;;;;;;4.74;81.26;99881.11;440849;1253;139667;-60
2024/02/14 21:10:33;;;;;;;29.40;20.30;;;;;;;4.79;81.27;99872.60;437147;1256;140008;-61
2024/02/14 21:20:40;;;;;;;27.80;18.00;;;;;;;4.82;81.31;99878.73;437524;1256;139888;-58
2024/02/14 21:30:46;;;;;;;27.10;19.00;;;;;;;4.86;81.53;99878.60;437171;1257;139520;-59
2024/02/14 21:40:52;;;;;;;25.60;16.50;;;;;;;4.89;81.59;99878.48;437256;1254;139562;-58
2024/02/14 21:51:03;;;;;;;24.20;16.00;;;;;;;4.91;81.81;99880.33;437084;1256;139661;-59
2024/02/14 22:01:10;;;;;;;22.60;16.30;;;;;;;4.92;82.10;99884.65;440070;1255;139922;-59
2024/02/14 22:11:16;;;;;;;21.00;15.40;;;;;;;4.93;82.43;99888.60;445629;1254;139408;-60
2024/02/14 22:21:22;;;;;;;25.60;16.60;;;;;;;4.94;82.68;99891.32;438356;1256;139644;-58
2024/02/14 22:31:29;;;;;;;23.70;16.20;;;;;;;4.95;83.09;99888.87;436607;1259;140572;-58
2024/02/14 22:41:37;;;;;;;21.10;14.80;;;;;;;4.96;83.49;99888.98;437088;1257;140901;-59
2024/02/14 22:51:44;;;;;;;26.60;16.10;;;;;;;5.00;83.93;99893.18;436855;1255;139482;-60
2024/02/14 23:01:51;;;;;;;19.70;14.60;;;;;;;5.04;84.27;99888.72;438230;1256;139543;-59
2024/02/14 23:11:58;;;;;;;22.70;15.90;;;;;;;5.07;84.63;99890.68;442383;1254;139712;-56
2024/02/14 23:22:04;;;;;;;23.50;15.50;;;;;;;5.11;85.02;99885.52;436907;1254;140105;-56
2024/02/14 23:32:14;;;;;;;28.70;17.90;;;;;;;5.12;85.21;99883.55;439307;1254;139842;-57
2024/02/14 23:42:21;;;;;;;28.90;18.00;;;;;;;5.12;85.58;99887.90;437055;1255;140045;-57
2024/02/14 23:52:28;;;;;;;29.00;19.40;;;;;;;5.10;86.02;99892.83;437074;1257;139764;-57
